📊 Raw Sensor Data

Showing records 48101 to 48125 of 85,095 total

ID Distance (ft) Battery V Battery A Int Temp (°F) Int Humid (%) Ext Temp (°F) Solar V RSSI SNR Time Stamp
37007 -- 3.76 -5 43 42 45 0.00 -77 8 04/06/2025 12:45 AM
37006 -- 3.76 -5 44 42 45 0.00 -76 8 04/06/2025 12:30 AM
37005 -- 3.76 -5 45 42 45 0.10 -76 8 04/06/2025 12:15 AM
37004 -- 3.76 -5 47 42 47 0.00 -76 8 04/06/2025 12:01 AM
37003 -- 3.88 -5 49 41 50 0.00 -76 8 04/05/2025 11:45 PM
37002 -- 3.76 -5 49 41 52 0.00 -76 9 04/05/2025 11:30 PM
37001 15.2 3.88 -5 50 41 52 0.00 -76 8 04/05/2025 11:15 PM
37000 -- 3.75 -5 51 42 52 0.00 -77 8 04/05/2025 11:00 PM
36999 -- 3.75 -5 52 41 53 0.00 -77 8 04/05/2025 10:45 PM
36998 -- 3.75 -5 52 42 54 0.00 -77 8 04/05/2025 10:30 PM
36997 -- 3.76 -5 53 42 55 0.00 -77 8 04/05/2025 10:15 PM
36996 -- 3.88 -5 53 42 55 0.00 -77 8 04/05/2025 10:00 PM
36995 -- 3.76 -5 54 43 55 0.00 -77 8 04/05/2025 09:46 PM
36994 -- 3.78 -5 54 43 56 0.00 -77 8 04/05/2025 09:30 PM
36993 -- 3.78 -5 55 44 56 0.00 -77 7 04/05/2025 09:15 PM
36992 -- 3.78 -5 56 44 57 0.00 -77 8 04/05/2025 09:00 PM
36991 -- 3.78 -5 57 45 59 0.10 -77 8 04/05/2025 08:46 PM
36990 -- 3.89 -5 57 46 58 0.00 -77 8 04/05/2025 08:30 PM
36989 -- 3.89 -5 58 47 60 0.10 -75 8 04/05/2025 08:15 PM
36988 15.1 3.89 -5 59 50 59 0.10 -77 8 04/05/2025 08:00 PM
36987 -- 3.90 -5 61 51 59 0.80 -75 8 04/05/2025 07:45 PM
36986 -- 3.90 -6 66 50 61 4.20 -75 8 04/05/2025 07:30 PM
36985 -- 3.84 0 72 49 66 4.50 -75 8 04/05/2025 07:15 PM
36984 -- 3.88 11 79 49 70 4.60 -75 8 04/05/2025 06:45 PM
36983 -- 3.89 0 87 44 77 5.10 -75 9 04/05/2025 06:30 PM